sensor_id;sensor_type;location;lat;lon;timestamp;pressure;altitude;pressure_sealevel;temperature;humidity
50166;BME280;36071;48.140;11.516;2023-07-02T00:04:30;94990.0;;;18.6;78.4
50166;BME280;36071;48.140;11.516;2023-07-02T00:09:30;94990.0;;;18.5;78.4
50166;BME280;36071;48.140;11.516;2023-07-02T00:14:30;94990.0;;;18.5;78.6
50166;BME280;36071;48.140;11.516;2023-07-02T00:19:30;94990.0;;;18.6;78.4
50166;BME280;36071;48.140;11.516;2023-07-02T00:24:30;94990.0;;;18.5;77.6
50166;BME280;36071;48.140;11.516;2023-07-02T00:29:30;94990.0;;;18.5;77.5
50166;BME280;36071;48.140;11.516;2023-07-02T00:34:30;94990.0;;;18.5;77.9
50166;BME280;36071;48.140;11.516;2023-07-02T00:39:30;94980.0;;;18.5;77.6
50166;BME280;36071;48.140;11.516;2023-07-02T00:44:30;94980.0;;;18.4;78.7
50166;BME280;36071;48.140;11.516;2023-07-02T00:49:30;94990.0;;;18.4;80.4
50166;BME280;36071;48.140;11.516;2023-07-02T00:54:30;95000.0;;;18.4;80.3
50166;BME280;36071;48.140;11.516;2023-07-02T00:59:30;95000.0;;;18.3;80.7
50166;BME280;36071;48.140;11.516;2023-07-02T01:04:30;95000.0;;;18.3;81.6
50166;BME280;36071;48.140;11.516;2023-07-02T01:09:30;95000.0;;;18.2;82.5
50166;BME280;36071;48.140;11.516;2023-07-02T01:14:30;95000.0;;;18.2;83.6
50166;BME280;36071;48.140;11.516;2023-07-02T01:19:34;95000.0;;;18.2;84.8
50166;BME280;36071;48.140;11.516;2023-07-02T01:24:30;95010.0;;;18.1;84.9
50166;BME280;36071;48.140;11.516;2023-07-02T01:29:30;95010.0;;;18.1;84.7
50166;BME280;36071;48.140;11.516;2023-07-02T01:34:30;95010.0;;;18.1;85.1
50166;BME280;36071;48.140;11.516;2023-07-02T01:39:30;95000.0;;;18.1;85.6
50166;BME280;36071;48.140;11.516;2023-07-02T01:44:30;95010.0;;;18.2;85.2
50166;BME280;36071;48.140;11.516;2023-07-02T01:49:30;95000.0;;;18.1;85.8
50166;BME280;36071;48.140;11.516;2023-07-02T01:54:31;95010.0;;;18.1;85.4
50166;BME280;36071;48.140;11.516;2023-07-02T01:59:30;95010.0;;;18.0;85.3
50166;BME280;36071;48.140;11.516;2023-07-02T02:04:30;95010.0;;;18.0;86.0
50166;BME280;36071;48.140;11.516;2023-07-02T02:09:30;95000.0;;;17.9;86.0
50166;BME280;36071;48.140;11.516;2023-07-02T02:19:30;95000.0;;;17.9;86.3
50166;BME280;36071;48.140;11.516;2023-07-02T02:24:30;95010.0;;;17.9;86.7
50166;BME280;36071;48.140;11.516;2023-07-02T02:29:30;95010.0;;;17.9;86.9
50166;BME280;36071;48.140;11.516;2023-07-02T02:34:30;95010.0;;;17.8;87.0
50166;BME280;36071;48.140;11.516;2023-07-02T02:44:30;95010.0;;;17.8;87.3
50166;BME280;36071;48.140;11.516;2023-07-02T02:49:30;95010.0;;;17.7;87.5
50166;BME280;36071;48.140;11.516;2023-07-02T02:54:30;95010.0;;;17.8;87.5
50166;BME280;36071;48.140;11.516;2023-07-02T02:59:30;95020.0;;;17.8;87.1
50166;BME280;36071;48.140;11.516;2023-07-02T03:09:30;95020.0;;;17.8;86.8
50166;BME280;36071;48.140;11.516;2023-07-02T03:14:30;95020.0;;;17.8;86.9
50166;BME280;36071;48.140;11.516;2023-07-02T03:19:30;95060.0;;;17.8;87.1
50166;BME280;36071;48.140;11.516;2023-07-02T03:24:30;95080.0;;;17.5;79.9
50166;BME280;36071;48.140;11.516;2023-07-02T03:29:30;95100.0;;;17.2;76.4
50166;BME280;36071;48.140;11.516;2023-07-02T03:34:30;95100.0;;;17.1;77.7
50166;BME280;36071;48.140;11.516;2023-07-02T03:39:30;95100.0;;;16.9;76.6
50166;BME280;36071;48.140;11.516;2023-07-02T03:44:30;95120.0;;;16.7;77.1
50166;BME280;36071;48.140;11.516;2023-07-02T03:49:30;95110.0;;;16.5;78.3
50166;BME280;36071;48.140;11.516;2023-07-02T03:54:30;95120.0;;;16.5;79.5
50166;BME280;36071;48.140;11.516;2023-07-02T03:59:30;95120.0;;;16.4;81.0
50166;BME280;36071;48.140;11.516;2023-07-02T04:04:30;95120.0;;;16.4;81.5
50166;BME280;36071;48.140;11.516;2023-07-02T04:09:30;95120.0;;;16.2;82.9
50166;BME280;36071;48.140;11.516;2023-07-02T04:14:30;95110.0;;;16.2;83.5
50166;BME280;36071;48.140;11.516;2023-07-02T04:19:30;95130.0;;;16.1;83.7
50166;BME280;36071;48.140;11.516;2023-07-02T04:24:30;95110.0;;;16.1;84.3
50166;BME280;36071;48.140;11.516;2023-07-02T04:29:30;95120.0;;;16.1;84.7
50166;BME280;36071;48.140;11.516;2023-07-02T04:34:30;95130.0;;;16.0;84.0
50166;BME280;36071;48.140;11.516;2023-07-02T04:39:30;95120.0;;;16.0;84.6
50166;BME280;36071;48.140;11.516;2023-07-02T04:44:30;95130.0;;;16.1;84.5
50166;BME280;36071;48.140;11.516;2023-07-02T04:49:30;95130.0;;;16.0;84.4
50166;BME280;36071;48.140;11.516;2023-07-02T04:54:30;95140.0;;;16.0;84.4
50166;BME280;36071;48.140;11.516;2023-07-02T04:59:30;95140.0;;;16.0;84.8
50166;BME280;36071;48.140;11.516;2023-07-02T05:04:30;95150.0;;;16.0;85.4
50166;BME280;36071;48.140;11.516;2023-07-02T05:09:30;95150.0;;;15.9;87.0
50166;BME280;36071;48.140;11.516;2023-07-02T05:14:30;95150.0;;;15.9;87.2
50166;BME280;36071;48.140;11.516;2023-07-02T05:19:30;95150.0;;;15.9;85.5
50166;BME280;36071;48.140;11.516;2023-07-02T05:24:30;95150.0;;;15.9;86.2
50166;BME280;36071;48.140;11.516;2023-07-02T05:29:30;95160.0;;;16.0;85.6
50166;BME280;36071;48.140;11.516;2023-07-02T05:34:30;95160.0;;;16.0;86.4
50166;BME280;36071;48.140;11.516;2023-07-02T05:39:30;95150.0;;;16.0;86.6
50166;BME280;36071;48.140;11.516;2023-07-02T05:44:30;95150.0;;;16.1;85.6
50166;BME280;36071;48.140;11.516;2023-07-02T05:49:30;95170.0;;;16.1;85.6
50166;BME280;36071;48.140;11.516;2023-07-02T05:54:30;95160.0;;;16.2;84.1
50166;BME280;36071;48.140;11.516;2023-07-02T05:59:30;95160.0;;;16.2;84.7
50166;BME280;36071;48.140;11.516;2023-07-02T06:04:30;95170.0;;;16.3;85.3
50166;BME280;36071;48.140;11.516;2023-07-02T06:09:30;95170.0;;;16.3;85.2
50166;BME280;36071;48.140;11.516;2023-07-02T06:14:30;95170.0;;;16.3;84.9
50166;BME280;36071;48.140;11.516;2023-07-02T06:19:30;95170.0;;;16.3;84.5
50166;BME280;36071;48.140;11.516;2023-07-02T06:24:30;95180.0;;;16.2;85.6
50166;BME280;36071;48.140;11.516;2023-07-02T06:29:30;95190.0;;;16.2;85.0
50166;BME280;36071;48.140;11.516;2023-07-02T06:34:30;95190.0;;;16.3;85.3
50166;BME280;36071;48.140;11.516;2023-07-02T06:39:30;95190.0;;;16.2;86.1
50166;BME280;36071;48.140;11.516;2023-07-02T06:44:30;95200.0;;;16.3;86.4
50166;BME280;36071;48.140;11.516;2023-07-02T06:49:30;95190.0;;;16.3;87.7
50166;BME280;36071;48.140;11.516;2023-07-02T06:54:30;95200.0;;;16.4;87.8
50166;BME280;36071;48.140;11.516;2023-07-02T06:59:30;95210.0;;;16.4;89.2
50166;BME280;36071;48.140;11.516;2023-07-02T07:04:30;95220.0;;;16.4;89.0
50166;BME280;36071;48.140;11.516;2023-07-02T07:09:30;95220.0;;;16.4;91.3
50166;BME280;36071;48.140;11.516;2023-07-02T07:14:30;95230.0;;;16.3;89.8
50166;BME280;36071;48.140;11.516;2023-07-02T07:19:30;95240.0;;;16.3;89.7
50166;BME280;36071;48.140;11.516;2023-07-02T07:24:30;95240.0;;;16.2;90.0
50166;BME280;36071;48.140;11.516;2023-07-02T07:29:30;95230.0;;;16.2;90.3
50166;BME280;36071;48.140;11.516;2023-07-02T07:34:30;95220.0;;;16.2;90.7
50166;BME280;36071;48.140;11.516;2023-07-02T07:39:30;95230.0;;;16.2;90.6
50166;BME280;36071;48.140;11.516;2023-07-02T07:44:30;95240.0;;;16.1;89.9
50166;BME280;36071;48.140;11.516;2023-07-02T07:49:30;95250.0;;;16.1;90.6
50166;BME280;36071;48.140;11.516;2023-07-02T07:54:30;95250.0;;;16.2;91.7
50166;BME280;36071;48.140;11.516;2023-07-02T07:59:30;95240.0;;;16.2;92.2
50166;BME280;36071;48.140;11.516;2023-07-02T08:04:30;95250.0;;;16.3;93.5
50166;BME280;36071;48.140;11.516;2023-07-02T08:09:30;95240.0;;;16.6;94.7
50166;BME280;36071;48.140;11.516;2023-07-02T08:14:30;95250.0;;;16.8;92.2
50166;BME280;36071;48.140;11.516;2023-07-02T08:19:30;95240.0;;;17.0;90.7
50166;BME280;36071;48.140;11.516;2023-07-02T08:24:30;95240.0;;;17.1;91.5
50166;BME280;36071;48.140;11.516;2023-07-02T08:29:30;95220.0;;;16.8;90.5
50166;BME280;36071;48.140;11.516;2023-07-02T08:34:30;95260.0;;;16.9;91.2
50166;BME280;36071;48.140;11.516;2023-07-02T08:39:31;95270.0;;;16.9;91.5
50166;BME280;36071;48.140;11.516;2023-07-02T08:44:30;95270.0;;;16.9;91.7
50166;BME280;36071;48.140;11.516;2023-07-02T08:49:30;95270.0;;;16.8;92.6
50166;BME280;36071;48.140;11.516;2023-07-02T08:54:30;95270.0;;;16.8;93.1
50166;BME280;36071;48.140;11.516;2023-07-02T08:59:30;95280.0;;;16.8;93.7
50166;BME280;36071;48.140;11.516;2023-07-02T09:04:30;95280.0;;;16.7;94.2
50166;BME280;36071;48.140;11.516;2023-07-02T09:09:30;95290.0;;;16.7;94.6
50166;BME280;36071;48.140;11.516;2023-07-02T09:14:31;95280.0;;;16.7;95.1
50166;BME280;36071;48.140;11.516;2023-07-02T09:19:30;95280.0;;;16.6;94.9
50166;BME280;36071;48.140;11.516;2023-07-02T09:24:31;95290.0;;;16.6;95.6
50166;BME280;36071;48.140;11.516;2023-07-02T09:29:31;95300.0;;;16.5;95.0
50166;BME280;36071;48.140;11.516;2023-07-02T09:34:30;95300.0;;;16.5;94.6
50166;BME280;36071;48.140;11.516;2023-07-02T09:39:30;95300.0;;;16.5;97.4
50166;BME280;36071;48.140;11.516;2023-07-02T09:44:31;95300.0;;;16.4;95.9
50166;BME280;36071;48.140;11.516;2023-07-02T09:49:31;95300.0;;;16.4;95.7
50166;BME280;36071;48.140;11.516;2023-07-02T09:54:30;95300.0;;;16.5;96.7
50166;BME280;36071;48.140;11.516;2023-07-02T09:59:30;95300.0;;;16.4;96.2
50166;BME280;36071;48.140;11.516;2023-07-02T10:09:34;95290.0;;;16.6;96.2
50166;BME280;36071;48.140;11.516;2023-07-02T10:14:40;95280.0;;;16.8;95.6
50166;BME280;36071;48.140;11.516;2023-07-02T10:19:30;95280.0;;;17.6;89.6
50166;BME280;36071;48.140;11.516;2023-07-02T10:24:31;95270.0;;;18.0;85.3
50166;BME280;36071;48.140;11.516;2023-07-02T10:29:30;95280.0;;;18.1;85.0
50166;BME280;36071;48.140;11.516;2023-07-02T10:34:30;95270.0;;;18.3;84.6
50166;BME280;36071;48.140;11.516;2023-07-02T10:39:38;95270.0;;;18.3;82.6
50166;BME280;36071;48.140;11.516;2023-07-02T10:44:30;95280.0;;;18.5;80.3
50166;BME280;36071;48.140;11.516;2023-07-02T10:49:31;95270.0;;;18.6;79.3
50166;BME280;36071;48.140;11.516;2023-07-02T10:54:38;95270.0;;;19.1;78.1
50166;BME280;36071;48.140;11.516;2023-07-02T10:59:30;95260.0;;;19.8;72.8
50166;BME280;36071;48.140;11.516;2023-07-02T11:04:30;95260.0;;;20.1;71.5
50166;BME280;36071;48.140;11.516;2023-07-02T11:09:30;95270.0;;;20.5;67.1
50166;BME280;36071;48.140;11.516;2023-07-02T11:14:31;95260.0;;;20.9;65.5
50166;BME280;36071;48.140;11.516;2023-07-02T11:19:30;95240.0;;;20.9;65.2
50166;BME280;36071;48.140;11.516;2023-07-02T11:24:31;95240.0;;;20.8;64.1
50166;BME280;36071;48.140;11.516;2023-07-02T11:29:30;95240.0;;;20.7;64.8
50166;BME280;36071;48.140;11.516;2023-07-02T11:34:30;95240.0;;;20.9;67.3
50166;BME280;36071;48.140;11.516;2023-07-02T11:39:30;95230.0;;;21.5;62.6
50166;BME280;36071;48.140;11.516;2023-07-02T11:44:30;95220.0;;;22.1;60.5
50166;BME280;36071;48.140;11.516;2023-07-02T11:49:30;95230.0;;;22.1;59.1
50166;BME280;36071;48.140;11.516;2023-07-02T11:54:30;95220.0;;;22.1;59.0
50166;BME280;36071;48.140;11.516;2023-07-02T11:59:30;95210.0;;;22.3;59.0
50166;BME280;36071;48.140;11.516;2023-07-02T12:04:44;95210.0;;;21.9;59.2
50166;BME280;36071;48.140;11.516;2023-07-02T12:09:31;95200.0;;;21.9;59.0
50166;BME280;36071;48.140;11.516;2023-07-02T12:14:30;95190.0;;;22.4;58.1
50166;BME280;36071;48.140;11.516;2023-07-02T12:19:30;95190.0;;;22.8;55.7
50166;BME280;36071;48.140;11.516;2023-07-02T12:24:30;95180.0;;;23.1;55.2
50166;BME280;36071;48.140;11.516;2023-07-02T12:29:30;95180.0;;;23.2;54.5
50166;BME280;36071;48.140;11.516;2023-07-02T12:34:31;95180.0;;;23.0;54.3
50166;BME280;36071;48.140;11.516;2023-07-02T12:39:30;95180.0;;;22.7;56.4
50166;BME280;36071;48.140;11.516;2023-07-02T12:44:30;95170.0;;;22.4;55.2
50166;BME280;36071;48.140;11.516;2023-07-02T12:49:30;95170.0;;;22.4;54.9
50166;BME280;36071;48.140;11.516;2023-07-02T12:54:30;95170.0;;;22.7;54.5
50166;BME280;36071;48.140;11.516;2023-07-02T12:59:30;95160.0;;;22.7;50.0
50166;BME280;36071;48.140;11.516;2023-07-02T13:04:30;95160.0;;;22.9;48.1
50166;BME280;36071;48.140;11.516;2023-07-02T13:09:36;95170.0;;;23.1;48.1
50166;BME280;36071;48.140;11.516;2023-07-02T13:14:36;95170.0;;;23.5;47.3
50166;BME280;36071;48.140;11.516;2023-07-02T13:19:36;95170.0;;;23.6;46.7
50166;BME280;36071;48.140;11.516;2023-07-02T13:29:36;95180.0;;;23.8;45.8
50166;BME280;36071;48.140;11.516;2023-07-02T13:34:36;95180.0;;;23.9;46.4
50166;BME280;36071;48.140;11.516;2023-07-02T13:39:36;95170.0;;;23.9;45.2
50166;BME280;36071;48.140;11.516;2023-07-02T13:44:36;95170.0;;;23.9;44.9
50166;BME280;36071;48.140;11.516;2023-07-02T13:49:36;95160.0;;;23.6;45.4
50166;BME280;36071;48.140;11.516;2023-07-02T13:54:36;95160.0;;;23.8;45.2
50166;BME280;36071;48.140;11.516;2023-07-02T13:59:36;95150.0;;;23.8;44.0
50166;BME280;36071;48.140;11.516;2023-07-02T14:04:36;95170.0;;;24.0;44.9
50166;BME280;36071;48.140;11.516;2023-07-02T14:09:36;95160.0;;;23.8;44.7
50166;BME280;36071;48.140;11.516;2023-07-02T14:14:36;95160.0;;;23.7;44.2
50166;BME280;36071;48.140;11.516;2023-07-02T14:19:37;95160.0;;;23.8;43.5
50166;BME280;36071;48.140;11.516;2023-07-02T14:24:36;95150.0;;;23.9;43.2
50166;BME280;36071;48.140;11.516;2023-07-02T14:29:36;95170.0;;;23.8;42.9
50166;BME280;36071;48.140;11.516;2023-07-02T14:34:37;95170.0;;;23.9;43.5
50166;BME280;36071;48.140;11.516;2023-07-02T14:39:36;95160.0;;;23.7;43.8
50166;BME280;36071;48.140;11.516;2023-07-02T14:44:36;95150.0;;;23.6;44.2
50166;BME280;36071;48.140;11.516;2023-07-02T14:49:36;95150.0;;;23.7;44.6
50166;BME280;36071;48.140;11.516;2023-07-02T14:54:36;95150.0;;;23.6;43.7
50166;BME280;36071;48.140;11.516;2023-07-02T14:59:38;95140.0;;;23.5;44.1
50166;BME280;36071;48.140;11.516;2023-07-02T15:04:36;95160.0;;;23.6;44.4
50166;BME280;36071;48.140;11.516;2023-07-02T15:09:36;95160.0;;;23.8;44.0
50166;BME280;36071;48.140;11.516;2023-07-02T15:14:36;95150.0;;;24.0;44.2
50166;BME280;36071;48.140;11.516;2023-07-02T15:19:36;95150.0;;;24.1;43.4
50166;BME280;36071;48.140;11.516;2023-07-02T15:24:36;95120.0;;;24.0;43.7
50166;BME280;36071;48.140;11.516;2023-07-02T15:29:36;95160.0;;;24.1;42.8
50166;BME280;36071;48.140;11.516;2023-07-02T15:34:36;95150.0;;;23.9;42.5
50166;BME280;36071;48.140;11.516;2023-07-02T15:39:36;95140.0;;;24.0;43.1
50166;BME280;36071;48.140;11.516;2023-07-02T15:44:36;95150.0;;;24.0;43.4
50166;BME280;36071;48.140;11.516;2023-07-02T15:49:37;95140.0;;;23.9;42.4
50166;BME280;36071;48.140;11.516;2023-07-02T15:54:36;95140.0;;;23.7;42.7
50166;BME280;36071;48.140;11.516;2023-07-02T15:59:36;95130.0;;;23.8;42.5
50166;BME280;36071;48.140;11.516;2023-07-02T16:04:36;95130.0;;;23.9;42.3
50166;BME280;36071;48.140;11.516;2023-07-02T16:09:36;95130.0;;;23.9;43.0
50166;BME280;36071;48.140;11.516;2023-07-02T16:14:37;95140.0;;;23.9;43.4
50166;BME280;36071;48.140;11.516;2023-07-02T16:19:36;95130.0;;;23.8;44.1
50166;BME280;36071;48.140;11.516;2023-07-02T16:24:36;95140.0;;;23.7;44.5
50166;BME280;36071;48.140;11.516;2023-07-02T16:29:37;95130.0;;;23.6;44.0
50166;BME280;36071;48.140;11.516;2023-07-02T16:34:36;95130.0;;;23.6;43.8
50166;BME280;36071;48.140;11.516;2023-07-02T16:39:36;95130.0;;;23.5;43.6
50166;BME280;36071;48.140;11.516;2023-07-02T16:44:36;95140.0;;;23.3;43.6
50166;BME280;36071;48.140;11.516;2023-07-02T16:49:36;95150.0;;;23.3;44.3
50166;BME280;36071;48.140;11.516;2023-07-02T16:54:37;95140.0;;;23.1;45.0
50166;BME280;36071;48.140;11.516;2023-07-02T16:59:36;95150.0;;;23.0;45.1
50166;BME280;36071;48.140;11.516;2023-07-02T17:04:36;95150.0;;;23.1;44.7
50166;BME280;36071;48.140;11.516;2023-07-02T17:09:37;95140.0;;;23.1;44.6
50166;BME280;36071;48.140;11.516;2023-07-02T17:14:36;95140.0;;;23.1;44.7
50166;BME280;36071;48.140;11.516;2023-07-02T17:19:37;95140.0;;;23.1;44.9
50166;BME280;36071;48.140;11.516;2023-07-02T17:24:37;95150.0;;;23.1;45.1
50166;BME280;36071;48.140;11.516;2023-07-02T17:29:36;95150.0;;;23.0;45.6
50166;BME280;36071;48.140;11.516;2023-07-02T17:39:36;95150.0;;;22.9;45.2
50166;BME280;36071;48.140;11.516;2023-07-02T17:44:37;95150.0;;;23.0;45.3
50166;BME280;36071;48.140;11.516;2023-07-02T17:49:37;95140.0;;;23.0;45.7
50166;BME280;36071;48.140;11.516;2023-07-02T17:54:37;95140.0;;;22.8;45.9
50166;BME280;36071;48.140;11.516;2023-07-02T17:59:38;95150.0;;;22.7;46.3
50166;BME280;36071;48.140;11.516;2023-07-02T18:04:36;95150.0;;;22.7;46.7
50166;BME280;36071;48.140;11.516;2023-07-02T18:09:37;95160.0;;;22.6;47.2
50166;BME280;36071;48.140;11.516;2023-07-02T18:14:37;95150.0;;;22.5;47.6
50166;BME280;36071;48.140;11.516;2023-07-02T18:19:36;95160.0;;;22.5;47.8
50166;BME280;36071;48.140;11.516;2023-07-02T18:24:37;95150.0;;;22.5;48.0
50166;BME280;36071;48.140;11.516;2023-07-02T18:29:36;95160.0;;;22.4;48.0
50166;BME280;36071;48.140;11.516;2023-07-02T18:34:37;95160.0;;;22.4;48.1
50166;BME280;36071;48.140;11.516;2023-07-02T18:39:36;95160.0;;;22.3;48.4
50166;BME280;36071;48.140;11.516;2023-07-02T18:44:37;95160.0;;;22.3;48.6
50166;BME280;36071;48.140;11.516;2023-07-02T18:49:36;95170.0;;;22.2;48.9
50166;BME280;36071;48.140;11.516;2023-07-02T18:54:36;95170.0;;;22.1;49.0
50166;BME280;36071;48.140;11.516;2023-07-02T18:59:36;95160.0;;;22.1;49.4
50166;BME280;36071;48.140;11.516;2023-07-02T19:04:36;95170.0;;;22.1;49.5
50166;BME280;36071;48.140;11.516;2023-07-02T19:09:37;95170.0;;;22.0;49.9
50166;BME280;36071;48.140;11.516;2023-07-02T19:14:37;95190.0;;;22.0;50.1
50166;BME280;36071;48.140;11.516;2023-07-02T19:19:37;95190.0;;;21.9;50.5
50166;BME280;36071;48.140;11.516;2023-07-02T19:24:36;95190.0;;;21.8;51.0
50166;BME280;36071;48.140;11.516;2023-07-02T19:29:36;95190.0;;;21.7;51.4
50166;BME280;36071;48.140;11.516;2023-07-02T19:34:36;95210.0;;;21.6;51.9
50166;BME280;36071;48.140;11.516;2023-07-02T19:39:36;95200.0;;;21.5;52.4
50166;BME280;36071;48.140;11.516;2023-07-02T19:44:36;95220.0;;;21.5;52.8
50166;BME280;36071;48.140;11.516;2023-07-02T19:49:37;95210.0;;;21.4;53.3
50166;BME280;36071;48.140;11.516;2023-07-02T19:54:36;95220.0;;;21.3;53.6
50166;BME280;36071;48.140;11.516;2023-07-02T20:04:36;95220.0;;;21.2;53.9
50166;BME280;36071;48.140;11.516;2023-07-02T20:09:36;95240.0;;;21.2;54.3
50166;BME280;36071;48.140;11.516;2023-07-02T20:14:36;95260.0;;;21.1;54.6
50166;BME280;36071;48.140;11.516;2023-07-02T20:19:36;95250.0;;;21.0;54.8
50166;BME280;36071;48.140;11.516;2023-07-02T20:24:36;95260.0;;;20.9;55.2
50166;BME280;36071;48.140;11.516;2023-07-02T20:29:36;95260.0;;;20.9;55.4
50166;BME280;36071;48.140;11.516;2023-07-02T20:34:36;95260.0;;;20.9;55.6
50166;BME280;36071;48.140;11.516;2023-07-02T20:39:36;95270.0;;;20.8;55.7
50166;BME280;36071;48.140;11.516;2023-07-02T20:44:36;95270.0;;;20.7;56.3
50166;BME280;36071;48.140;11.516;2023-07-02T20:49:36;95270.0;;;20.9;56.8
50166;BME280;36071;48.140;11.516;2023-07-02T20:54:36;95260.0;;;20.9;56.6
50166;BME280;36071;48.140;11.516;2023-07-02T20:59:36;95270.0;;;20.9;56.1
50166;BME280;36071;48.140;11.516;2023-07-02T21:04:36;95270.0;;;20.9;56.2
50166;BME280;36071;48.140;11.516;2023-07-02T21:09:36;95270.0;;;20.9;56.6
50166;BME280;36071;48.140;11.516;2023-07-02T21:14:36;95280.0;;;20.8;56.6
50166;BME280;36071;48.140;11.516;2023-07-02T21:19:36;95280.0;;;20.8;56.9
50166;BME280;36071;48.140;11.516;2023-07-02T21:24:36;95280.0;;;20.8;57.1
50166;BME280;36071;48.140;11.516;2023-07-02T21:29:36;95290.0;;;20.7;57.4
50166;BME280;36071;48.140;11.516;2023-07-02T21:34:36;95300.0;;;20.8;57.6
50166;BME280;36071;48.140;11.516;2023-07-02T21:39:38;95290.0;;;20.8;57.7
50166;BME280;36071;48.140;11.516;2023-07-02T21:44:36;95300.0;;;20.7;57.7
50166;BME280;36071;48.140;11.516;2023-07-02T21:49:36;95300.0;;;20.8;57.8
50166;BME280;36071;48.140;11.516;2023-07-02T21:54:36;95310.0;;;20.8;57.5
50166;BME280;36071;48.140;11.516;2023-07-02T21:59:36;95310.0;;;20.8;57.6
50166;BME280;36071;48.140;11.516;2023-07-02T22:04:36;95320.0;;;20.8;57.6
50166;BME280;36071;48.140;11.516;2023-07-02T22:09:36;95310.0;;;20.8;57.6
50166;BME280;36071;48.140;11.516;2023-07-02T22:14:36;95320.0;;;20.8;58.0
50166;BME280;36071;48.140;11.516;2023-07-02T22:19:36;95320.0;;;20.7;58.0
50166;BME280;36071;48.140;11.516;2023-07-02T22:24:36;95310.0;;;20.7;58.5
50166;BME280;36071;48.140;11.516;2023-07-02T22:29:36;95320.0;;;20.6;58.8
50166;BME280;36071;48.140;11.516;2023-07-02T22:34:36;95320.0;;;20.6;59.0
50166;BME280;36071;48.140;11.516;2023-07-02T22:39:36;95320.0;;;20.5;59.3
50166;BME280;36071;48.140;11.516;2023-07-02T22:44:36;95330.0;;;20.5;59.5
50166;BME280;36071;48.140;11.516;2023-07-02T22:49:36;95330.0;;;20.4;59.6
50166;BME280;36071;48.140;11.516;2023-07-02T22:54:36;95320.0;;;20.3;59.8
50166;BME280;36071;48.140;11.516;2023-07-02T22:59:36;95320.0;;;20.3;60.2
50166;BME280;36071;48.140;11.516;2023-07-02T23:04:36;95330.0;;;20.2;60.6
50166;BME280;36071;48.140;11.516;2023-07-02T23:09:36;95320.0;;;20.1;61.0
50166;BME280;36071;48.140;11.516;2023-07-02T23:14:36;95320.0;;;20.1;61.2
50166;BME280;36071;48.140;11.516;2023-07-02T23:19:36;95320.0;;;20.1;61.4
50166;BME280;36071;48.140;11.516;2023-07-02T23:24:36;95320.0;;;20.0;62.0
50166;BME280;36071;48.140;11.516;2023-07-02T23:29:36;95320.0;;;19.9;62.0
50166;BME280;36071;48.140;11.516;2023-07-02T23:34:36;95320.0;;;19.8;62.6
50166;BME280;36071;48.140;11.516;2023-07-02T23:39:36;95310.0;;;19.7;63.2
50166;BME280;36071;48.140;11.516;2023-07-02T23:44:36;95300.0;;;19.7;63.6
50166;BME280;36071;48.140;11.516;2023-07-02T23:49:36;95300.0;;;19.6;64.0
50166;BME280;36071;48.140;11.516;2023-07-02T23:54:36;95310.0;;;19.6;64.4
50166;BME280;36071;48.140;11.516;2023-07-02T23:59:36;95310.0;;;19.5;64.9
